sensor_id;sensor_type;location;lat;lon;timestamp;temperature;humidity
43679;DHT22;29279;50.858;4.392;2024-02-14T00:00:12;8.90;99.90
43679;DHT22;29279;50.858;4.392;2024-02-14T00:02:44;9.00;99.90
43679;DHT22;29279;50.858;4.392;2024-02-14T00:05:10;9.10;99.90
43679;DHT22;29279;50.858;4.392;2024-02-14T00:07:37;9.10;99.90
43679;DHT22;29279;50.858;4.392;2024-02-14T00:10:03;9.10;99.90
43679;DHT22;29279;50.858;4.392;2024-02-14T00:12:32;9.20;99.90
43679;DHT22;29279;50.858;4.392;2024-02-14T00:14:59;9.20;99.90
43679;DHT22;29279;50.858;4.392;2024-02-14T00:17:25;9.20;99.90
43679;DHT22;29279;50.858;4.392;2024-02-14T00:19:51;9.30;99.90
43679;DHT22;29279;50.858;4.392;2024-02-14T00:22:17;9.30;99.90
43679;DHT22;29279;50.858;4.392;2024-02-14T00:24:50;9.30;99.90
43679;DHT22;29279;50.858;4.392;2024-02-14T00:27:48;9.30;99.90
43679;DHT22;29279;50.858;4.392;2024-02-14T00:30:44;9.40;99.90
43679;DHT22;29279;50.858;4.392;2024-02-14T00:33:10;9.50;99.90
43679;DHT22;29279;50.858;4.392;2024-02-14T00:39:18;9.40;99.90
43679;DHT22;29279;50.858;4.392;2024-02-14T00:42:09;9.40;99.90
43679;DHT22;29279;50.858;4.392;2024-02-14T00:44:56;9.40;99.90
43679;DHT22;29279;50.858;4.392;2024-02-14T00:50:56;9.50;99.90
43679;DHT22;29279;50.858;4.392;2024-02-14T00:57:17;9.40;99.90
43679;DHT22;29279;50.858;4.392;2024-02-14T01:00:46;9.50;99.90
43679;DHT22;29279;50.858;4.392;2024-02-14T01:03:23;9.50;99.90
43679;DHT22;29279;50.858;4.392;2024-02-14T01:09:49;9.70;99.90
43679;DHT22;29279;50.858;4.392;2024-02-14T01:12:36;9.60;99.90
43679;DHT22;29279;50.858;4.392;2024-02-14T01:15:03;9.60;99.90
43679;DHT22;29279;50.858;4.392;2024-02-14T01:17:37;9.60;99.90
43679;DHT22;29279;50.858;4.392;2024-02-14T01:20:06;9.60;99.90
43679;DHT22;29279;50.858;4.392;2024-02-14T01:22:35;9.60;99.90
43679;DHT22;29279;50.858;4.392;2024-02-14T01:25:21;9.60;99.90
43679;DHT22;29279;50.858;4.392;2024-02-14T01:28:07;9.60;99.90
43679;DHT22;29279;50.858;4.392;2024-02-14T01:31:12;9.50;99.90
43679;DHT22;29279;50.858;4.392;2024-02-14T01:37:02;9.60;99.90
43679;DHT22;29279;50.858;4.392;2024-02-14T01:39:28;9.50;99.90
43679;DHT22;29279;50.858;4.392;2024-02-14T01:42:09;9.60;99.90
43679;DHT22;29279;50.858;4.392;2024-02-14T01:44:56;9.60;99.90
43679;DHT22;29279;50.858;4.392;2024-02-14T01:47:33;9.60;99.90
43679;DHT22;29279;50.858;4.392;2024-02-14T01:50:03;9.50;99.90
43679;DHT22;29279;50.858;4.392;2024-02-14T01:52:51;9.50;99.90
43679;DHT22;29279;50.858;4.392;2024-02-14T01:55:18;9.40;99.90
43679;DHT22;29279;50.858;4.392;2024-02-14T01:57:54;9.40;99.90
43679;DHT22;29279;50.858;4.392;2024-02-14T02:00:38;9.40;99.90
43679;DHT22;29279;50.858;4.392;2024-02-14T02:03:49;9.40;99.90
43679;DHT22;29279;50.858;4.392;2024-02-14T02:06:39;9.40;99.90
43679;DHT22;29279;50.858;4.392;2024-02-14T02:09:27;9.40;99.90
43679;DHT22;29279;50.858;4.392;2024-02-14T02:12:18;9.50;99.90
43679;DHT22;29279;50.858;4.392;2024-02-14T02:15:14;9.50;99.90
43679;DHT22;29279;50.858;4.392;2024-02-14T02:18:30;9.50;99.90
43679;DHT22;29279;50.858;4.392;2024-02-14T02:21:43;9.50;99.90
43679;DHT22;29279;50.858;4.392;2024-02-14T02:24:17;9.50;99.90
43679;DHT22;29279;50.858;4.392;2024-02-14T02:29:39;9.50;99.90
43679;DHT22;29279;50.858;4.392;2024-02-14T02:32:26;9.60;99.90
43679;DHT22;29279;50.858;4.392;2024-02-14T02:35:11;9.70;99.90
43679;DHT22;29279;50.858;4.392;2024-02-14T02:38:08;9.80;99.90
43679;DHT22;29279;50.858;4.392;2024-02-14T02:40:53;9.80;99.90
43679;DHT22;29279;50.858;4.392;2024-02-14T02:43:37;10.00;99.90
43679;DHT22;29279;50.858;4.392;2024-02-14T02:50:18;9.90;99.90
43679;DHT22;29279;50.858;4.392;2024-02-14T02:53:19;10.00;99.90
43679;DHT22;29279;50.858;4.392;2024-02-14T02:56:29;10.00;99.90
43679;DHT22;29279;50.858;4.392;2024-02-14T02:58:57;10.10;99.90
43679;DHT22;29279;50.858;4.392;2024-02-14T03:01:24;10.00;99.90
43679;DHT22;29279;50.858;4.392;2024-02-14T03:03:59;10.00;99.90
43679;DHT22;29279;50.858;4.392;2024-02-14T03:06:34;10.00;99.90
43679;DHT22;29279;50.858;4.392;2024-02-14T03:09:14;10.00;99.90
43679;DHT22;29279;50.858;4.392;2024-02-14T03:14:47;10.10;99.90
43679;DHT22;29279;50.858;4.392;2024-02-14T03:17:14;10.10;99.90
43679;DHT22;29279;50.858;4.392;2024-02-14T03:19:48;10.20;99.90
43679;DHT22;29279;50.858;4.392;2024-02-14T03:22:23;10.20;99.90
43679;DHT22;29279;50.858;4.392;2024-02-14T03:24:51;10.20;99.90
43679;DHT22;29279;50.858;4.392;2024-02-14T03:27:16;10.10;99.90
43679;DHT22;29279;50.858;4.392;2024-02-14T03:30:09;10.10;99.90
43679;DHT22;29279;50.858;4.392;2024-02-14T03:33:12;10.00;99.90
43679;DHT22;29279;50.858;4.392;2024-02-14T03:35:59;10.10;99.90
43679;DHT22;29279;50.858;4.392;2024-02-14T03:38:34;10.10;99.90
43679;DHT22;29279;50.858;4.392;2024-02-14T03:41:09;10.10;99.90
43679;DHT22;29279;50.858;4.392;2024-02-14T03:43:59;10.10;99.90
43679;DHT22;29279;50.858;4.392;2024-02-14T03:46:35;10.10;99.90
43679;DHT22;29279;50.858;4.392;2024-02-14T03:49:01;10.10;99.90
43679;DHT22;29279;50.858;4.392;2024-02-14T03:51:28;10.10;99.90
43679;DHT22;29279;50.858;4.392;2024-02-14T03:54:15;10.10;99.90
43679;DHT22;29279;50.858;4.392;2024-02-14T04:00:18;9.90;99.90
43679;DHT22;29279;50.858;4.392;2024-02-14T04:03:25;10.00;99.90
43679;DHT22;29279;50.858;4.392;2024-02-14T04:06:17;10.00;99.90
43679;DHT22;29279;50.858;4.392;2024-02-14T04:09:03;10.00;99.90
43679;DHT22;29279;50.858;4.392;2024-02-14T04:11:29;10.00;99.90
43679;DHT22;29279;50.858;4.392;2024-02-14T04:14:01;10.00;99.90
43679;DHT22;29279;50.858;4.392;2024-02-14T04:16:53;10.00;99.90
43679;DHT22;29279;50.858;4.392;2024-02-14T04:19:49;10.00;99.90
43679;DHT22;29279;50.858;4.392;2024-02-14T04:22:24;10.10;99.90
43679;DHT22;29279;50.858;4.392;2024-02-14T04:27:48;10.00;99.90
43679;DHT22;29279;50.858;4.392;2024-02-14T04:30:30;10.10;99.90
43679;DHT22;29279;50.858;4.392;2024-02-14T04:33:15;10.10;99.90
43679;DHT22;29279;50.858;4.392;2024-02-14T04:36:06;10.10;99.90
43679;DHT22;29279;50.858;4.392;2024-02-14T04:39:07;10.20;99.90
43679;DHT22;29279;50.858;4.392;2024-02-14T04:41:36;10.20;99.90
43679;DHT22;29279;50.858;4.392;2024-02-14T04:44:04;10.30;99.90
43679;DHT22;29279;50.858;4.392;2024-02-14T04:46:44;10.30;99.90
43679;DHT22;29279;50.858;4.392;2024-02-14T04:52:23;10.40;99.90
43679;DHT22;29279;50.858;4.392;2024-02-14T04:54:56;10.50;99.90
43679;DHT22;29279;50.858;4.392;2024-02-14T04:57:29;10.60;99.90
43679;DHT22;29279;50.858;4.392;2024-02-14T05:00:01;10.60;99.90
43679;DHT22;29279;50.858;4.392;2024-02-14T05:02:31;10.50;99.90
43679;DHT22;29279;50.858;4.392;2024-02-14T05:05:13;10.40;99.90
43679;DHT22;29279;50.858;4.392;2024-02-14T05:07:48;10.30;99.90
43679;DHT22;29279;50.858;4.392;2024-02-14T05:10:19;10.30;99.90
43679;DHT22;29279;50.858;4.392;2024-02-14T05:13:04;10.30;99.90
43679;DHT22;29279;50.858;4.392;2024-02-14T05:16:02;10.40;99.90
43679;DHT22;29279;50.858;4.392;2024-02-14T05:18:34;10.50;99.90
43679;DHT22;29279;50.858;4.392;2024-02-14T05:21:08;10.60;99.90
43679;DHT22;29279;50.858;4.392;2024-02-14T05:24:07;10.70;99.90
43679;DHT22;29279;50.858;4.392;2024-02-14T05:26:39;10.80;99.90
43679;DHT22;29279;50.858;4.392;2024-02-14T05:29:06;10.80;99.90
43679;DHT22;29279;50.858;4.392;2024-02-14T05:31:49;10.80;99.90
43679;DHT22;29279;50.858;4.392;2024-02-14T05:34:21;10.80;99.90
43679;DHT22;29279;50.858;4.392;2024-02-14T05:36:49;10.90;99.90
43679;DHT22;29279;50.858;4.392;2024-02-14T05:39:16;10.90;99.90
43679;DHT22;29279;50.858;4.392;2024-02-14T05:41:56;10.90;99.90
43679;DHT22;29279;50.858;4.392;2024-02-14T05:44:39;11.00;99.90
43679;DHT22;29279;50.858;4.392;2024-02-14T05:47:07;10.90;99.90
43679;DHT22;29279;50.858;4.392;2024-02-14T05:49:34;10.80;99.90
43679;DHT22;29279;50.858;4.392;2024-02-14T05:51:59;10.90;99.90
43679;DHT22;29279;50.858;4.392;2024-02-14T05:54:26;10.80;99.90
43679;DHT22;29279;50.858;4.392;2024-02-14T05:56:52;10.80;99.90
43679;DHT22;29279;50.858;4.392;2024-02-14T05:59:20;10.80;99.90
43679;DHT22;29279;50.858;4.392;2024-02-14T06:01:47;10.80;99.90
43679;DHT22;29279;50.858;4.392;2024-02-14T06:04:13;10.90;99.90
43679;DHT22;29279;50.858;4.392;2024-02-14T06:06:38;10.90;99.90
43679;DHT22;29279;50.858;4.392;2024-02-14T06:09:04;11.00;99.90
43679;DHT22;29279;50.858;4.392;2024-02-14T06:11:35;11.00;99.90
43679;DHT22;29279;50.858;4.392;2024-02-14T06:14:01;10.90;99.90
43679;DHT22;29279;50.858;4.392;2024-02-14T06:16:27;10.90;99.90
43679;DHT22;29279;50.858;4.392;2024-02-14T06:18:52;10.90;99.90
43679;DHT22;29279;50.858;4.392;2024-02-14T06:21:19;11.00;99.90
43679;DHT22;29279;50.858;4.392;2024-02-14T06:23:44;11.00;99.90
43679;DHT22;29279;50.858;4.392;2024-02-14T06:26:12;11.00;99.90
43679;DHT22;29279;50.858;4.392;2024-02-14T06:28:37;11.00;99.90
43679;DHT22;29279;50.858;4.392;2024-02-14T06:31:03;11.10;99.90
43679;DHT22;29279;50.858;4.392;2024-02-14T06:33:29;11.00;99.90
43679;DHT22;29279;50.858;4.392;2024-02-14T06:35:55;10.90;99.90
43679;DHT22;29279;50.858;4.392;2024-02-14T06:38:20;10.90;99.90
43679;DHT22;29279;50.858;4.392;2024-02-14T06:40:47;10.90;99.90
43679;DHT22;29279;50.858;4.392;2024-02-14T06:43:13;11.00;99.90
43679;DHT22;29279;50.858;4.392;2024-02-14T06:45:39;11.10;99.90
43679;DHT22;29279;50.858;4.392;2024-02-14T06:48:05;11.10;99.90
43679;DHT22;29279;50.858;4.392;2024-02-14T06:50:31;11.10;99.90
43679;DHT22;29279;50.858;4.392;2024-02-14T06:52:57;11.20;99.90
43679;DHT22;29279;50.858;4.392;2024-02-14T06:55:27;11.10;99.90
43679;DHT22;29279;50.858;4.392;2024-02-14T06:57:53;11.00;99.90
43679;DHT22;29279;50.858;4.392;2024-02-14T07:00:20;11.00;99.90
43679;DHT22;29279;50.858;4.392;2024-02-14T07:02:46;10.90;99.90
43679;DHT22;29279;50.858;4.392;2024-02-14T07:05:15;11.00;99.90
43679;DHT22;29279;50.858;4.392;2024-02-14T07:07:48;11.10;99.90
43679;DHT22;29279;50.858;4.392;2024-02-14T07:10:15;11.10;99.90
43679;DHT22;29279;50.858;4.392;2024-02-14T07:12:41;11.10;99.90
43679;DHT22;29279;50.858;4.392;2024-02-14T07:15:13;11.20;99.90
43679;DHT22;29279;50.858;4.392;2024-02-14T07:17:39;11.30;99.90
43679;DHT22;29279;50.858;4.392;2024-02-14T07:20:05;11.20;99.90
43679;DHT22;29279;50.858;4.392;2024-02-14T07:22:33;11.20;99.90
43679;DHT22;29279;50.858;4.392;2024-02-14T07:25:03;11.20;99.90
43679;DHT22;29279;50.858;4.392;2024-02-14T07:27:39;11.30;99.90
43679;DHT22;29279;50.858;4.392;2024-02-14T07:30:12;11.30;99.90
43679;DHT22;29279;50.858;4.392;2024-02-14T07:32:39;11.30;99.90
43679;DHT22;29279;50.858;4.392;2024-02-14T07:35:07;11.30;99.90
43679;DHT22;29279;50.858;4.392;2024-02-14T07:37:34;11.30;99.90
43679;DHT22;29279;50.858;4.392;2024-02-14T07:40:00;11.20;99.90
43679;DHT22;29279;50.858;4.392;2024-02-14T07:42:27;11.30;99.90
43679;DHT22;29279;50.858;4.392;2024-02-14T07:44:54;11.30;99.90
43679;DHT22;29279;50.858;4.392;2024-02-14T07:47:22;11.30;99.90
43679;DHT22;29279;50.858;4.392;2024-02-14T07:49:48;11.30;99.90
43679;DHT22;29279;50.858;4.392;2024-02-14T07:52:18;11.30;99.90
43679;DHT22;29279;50.858;4.392;2024-02-14T07:55:07;11.30;99.90
43679;DHT22;29279;50.858;4.392;2024-02-14T07:57:48;11.30;99.90
43679;DHT22;29279;50.858;4.392;2024-02-14T08:00:19;11.30;99.90
43679;DHT22;29279;50.858;4.392;2024-02-14T08:02:51;11.30;99.90
43679;DHT22;29279;50.858;4.392;2024-02-14T08:05:17;11.40;99.90
43679;DHT22;29279;50.858;4.392;2024-02-14T08:07:44;11.40;99.90
43679;DHT22;29279;50.858;4.392;2024-02-14T08:10:11;11.40;99.90
43679;DHT22;29279;50.858;4.392;2024-02-14T08:12:48;11.50;99.90
43679;DHT22;29279;50.858;4.392;2024-02-14T08:15:14;11.40;99.90
43679;DHT22;29279;50.858;4.392;2024-02-14T08:17:41;11.30;99.90
43679;DHT22;29279;50.858;4.392;2024-02-14T08:20:09;11.20;99.90
43679;DHT22;29279;50.858;4.392;2024-02-14T08:22:37;11.20;99.90
43679;DHT22;29279;50.858;4.392;2024-02-14T08:25:06;11.10;99.90
43679;DHT22;29279;50.858;4.392;2024-02-14T08:27:36;11.10;99.90
43679;DHT22;29279;50.858;4.392;2024-02-14T08:30:03;11.20;99.90
43679;DHT22;29279;50.858;4.392;2024-02-14T08:32:38;11.40;99.90
43679;DHT22;29279;50.858;4.392;2024-02-14T08:35:07;11.30;99.90
43679;DHT22;29279;50.858;4.392;2024-02-14T08:37:36;11.30;99.90
43679;DHT22;29279;50.858;4.392;2024-02-14T08:40:05;11.40;99.90
43679;DHT22;29279;50.858;4.392;2024-02-14T08:42:42;11.40;99.90
43679;DHT22;29279;50.858;4.392;2024-02-14T08:45:10;11.30;99.90
43679;DHT22;29279;50.858;4.392;2024-02-14T08:47:45;11.30;99.90
43679;DHT22;29279;50.858;4.392;2024-02-14T08:50:13;11.20;99.90
43679;DHT22;29279;50.858;4.392;2024-02-14T08:52:41;11.20;99.90
43679;DHT22;29279;50.858;4.392;2024-02-14T08:55:07;11.30;99.90
43679;DHT22;29279;50.858;4.392;2024-02-14T08:57:40;11.30;99.90
43679;DHT22;29279;50.858;4.392;2024-02-14T09:00:09;11.30;99.90
43679;DHT22;29279;50.858;4.392;2024-02-14T09:02:37;11.30;99.90
43679;DHT22;29279;50.858;4.392;2024-02-14T09:05:05;11.40;99.90
43679;DHT22;29279;50.858;4.392;2024-02-14T09:07:31;11.40;99.90
43679;DHT22;29279;50.858;4.392;2024-02-14T09:09:59;11.40;99.90
43679;DHT22;29279;50.858;4.392;2024-02-14T09:12:27;11.50;99.90
43679;DHT22;29279;50.858;4.392;2024-02-14T09:15:01;11.60;99.90
43679;DHT22;29279;50.858;4.392;2024-02-14T09:17:27;11.70;99.90
43679;DHT22;29279;50.858;4.392;2024-02-14T09:19:54;11.70;99.90
43679;DHT22;29279;50.858;4.392;2024-02-14T09:22:19;11.80;99.90
43679;DHT22;29279;50.858;4.392;2024-02-14T09:24:51;11.80;99.90
43679;DHT22;29279;50.858;4.392;2024-02-14T09:27:17;11.80;99.90
43679;DHT22;29279;50.858;4.392;2024-02-14T09:29:45;11.90;99.90
43679;DHT22;29279;50.858;4.392;2024-02-14T09:32:11;11.80;99.90
43679;DHT22;29279;50.858;4.392;2024-02-14T09:34:38;11.70;99.90
43679;DHT22;29279;50.858;4.392;2024-02-14T09:37:06;11.70;99.90
43679;DHT22;29279;50.858;4.392;2024-02-14T09:39:32;11.70;99.90
43679;DHT22;29279;50.858;4.392;2024-02-14T09:42:02;11.70;99.90
43679;DHT22;29279;50.858;4.392;2024-02-14T09:44:33;11.70;99.90
43679;DHT22;29279;50.858;4.392;2024-02-14T09:47:02;11.70;99.90
43679;DHT22;29279;50.858;4.392;2024-02-14T09:49:30;11.60;99.90
43679;DHT22;29279;50.858;4.392;2024-02-14T09:51:56;11.50;99.90
43679;DHT22;29279;50.858;4.392;2024-02-14T09:54:25;11.40;99.90
43679;DHT22;29279;50.858;4.392;2024-02-14T09:56:51;11.40;99.90
43679;DHT22;29279;50.858;4.392;2024-02-14T09:59:22;11.40;99.90
43679;DHT22;29279;50.858;4.392;2024-02-14T10:01:48;11.40;99.90
43679;DHT22;29279;50.858;4.392;2024-02-14T10:04:16;11.50;99.90
43679;DHT22;29279;50.858;4.392;2024-02-14T10:06:43;11.40;99.90
43679;DHT22;29279;50.858;4.392;2024-02-14T10:09:09;11.40;99.90
43679;DHT22;29279;50.858;4.392;2024-02-14T10:11:36;11.30;99.90
43679;DHT22;29279;50.858;4.392;2024-02-14T10:14:04;11.30;99.90
43679;DHT22;29279;50.858;4.392;2024-02-14T10:16:30;11.40;99.90
43679;DHT22;29279;50.858;4.392;2024-02-14T10:18:55;11.50;99.90
43679;DHT22;29279;50.858;4.392;2024-02-14T10:21:24;11.50;99.90
43679;DHT22;29279;50.858;4.392;2024-02-14T10:23:51;11.40;99.90
43679;DHT22;29279;50.858;4.392;2024-02-14T10:26:18;11.50;99.90
43679;DHT22;29279;50.858;4.392;2024-02-14T10:28:45;11.60;99.90
43679;DHT22;29279;50.858;4.392;2024-02-14T10:31:11;11.50;99.90
43679;DHT22;29279;50.858;4.392;2024-02-14T10:33:38;11.50;99.90
43679;DHT22;29279;50.858;4.392;2024-02-14T10:36:07;11.50;99.90
43679;DHT22;29279;50.858;4.392;2024-02-14T10:38:34;11.50;99.90
43679;DHT22;29279;50.858;4.392;2024-02-14T10:41:01;11.50;99.90
43679;DHT22;29279;50.858;4.392;2024-02-14T10:43:31;11.50;99.90
43679;DHT22;29279;50.858;4.392;2024-02-14T10:46:00;11.60;99.90
43679;DHT22;29279;50.858;4.392;2024-02-14T10:48:31;11.50;99.90
43679;DHT22;29279;50.858;4.392;2024-02-14T10:51:02;11.50;99.90
43679;DHT22;29279;50.858;4.392;2024-02-14T10:53:32;11.60;99.90
43679;DHT22;29279;50.858;4.392;2024-02-14T10:56:00;11.60;99.90
43679;DHT22;29279;50.858;4.392;2024-02-14T10:58:28;11.80;99.90
43679;DHT22;29279;50.858;4.392;2024-02-14T11:00:56;11.80;99.90
43679;DHT22;29279;50.858;4.392;2024-02-14T11:03:22;11.80;99.90
43679;DHT22;29279;50.858;4.392;2024-02-14T11:05:49;11.80;99.90
43679;DHT22;29279;50.858;4.392;2024-02-14T11:08:20;11.80;99.90
43679;DHT22;29279;50.858;4.392;2024-02-14T11:10:58;11.80;99.90
43679;DHT22;29279;50.858;4.392;2024-02-14T11:13:28;11.90;99.90
43679;DHT22;29279;50.858;4.392;2024-02-14T11:15:57;11.90;99.90
43679;DHT22;29279;50.858;4.392;2024-02-14T11:18:28;11.90;99.90
43679;DHT22;29279;50.858;4.392;2024-02-14T11:20:58;11.90;99.90
43679;DHT22;29279;50.858;4.392;2024-02-14T11:23:24;11.90;99.90
43679;DHT22;29279;50.858;4.392;2024-02-14T11:26:14;12.00;99.90
43679;DHT22;29279;50.858;4.392;2024-02-14T11:28:40;12.20;99.90
43679;DHT22;29279;50.858;4.392;2024-02-14T11:31:07;12.10;99.90
43679;DHT22;29279;50.858;4.392;2024-02-14T11:33:35;12.00;99.90
43679;DHT22;29279;50.858;4.392;2024-02-14T11:36:07;12.00;99.90
43679;DHT22;29279;50.858;4.392;2024-02-14T11:38:35;12.00;99.90
43679;DHT22;29279;50.858;4.392;2024-02-14T11:41:02;12.00;99.90
43679;DHT22;29279;50.858;4.392;2024-02-14T11:43:29;12.00;99.90
43679;DHT22;29279;50.858;4.392;2024-02-14T11:45:55;12.00;99.90
43679;DHT22;29279;50.858;4.392;2024-02-14T11:48:21;12.00;99.90
43679;DHT22;29279;50.858;4.392;2024-02-14T11:50:48;12.00;99.90
43679;DHT22;29279;50.858;4.392;2024-02-14T11:53:15;11.90;99.90
43679;DHT22;29279;50.858;4.392;2024-02-14T11:55:45;12.00;99.90
43679;DHT22;29279;50.858;4.392;2024-02-14T11:58:15;12.00;99.90
43679;DHT22;29279;50.858;4.392;2024-02-14T12:00:42;12.00;99.90
43679;DHT22;29279;50.858;4.392;2024-02-14T12:03:19;12.00;99.90
43679;DHT22;29279;50.858;4.392;2024-02-14T12:05:47;12.10;99.90
43679;DHT22;29279;50.858;4.392;2024-02-14T12:08:14;12.10;99.90
43679;DHT22;29279;50.858;4.392;2024-02-14T12:10:42;12.10;99.90
43679;DHT22;29279;50.858;4.392;2024-02-14T12:13:12;12.20;99.90
43679;DHT22;29279;50.858;4.392;2024-02-14T12:15:46;12.20;99.90
43679;DHT22;29279;50.858;4.392;2024-02-14T12:18:13;12.20;99.90
43679;DHT22;29279;50.858;4.392;2024-02-14T12:20:42;12.20;99.90
43679;DHT22;29279;50.858;4.392;2024-02-14T12:23:14;12.20;99.90
43679;DHT22;29279;50.858;4.392;2024-02-14T12:25:43;12.20;99.90
43679;DHT22;29279;50.858;4.392;2024-02-14T12:28:13;12.20;99.90
43679;DHT22;29279;50.858;4.392;2024-02-14T12:30:46;12.30;99.90
43679;DHT22;29279;50.858;4.392;2024-02-14T12:33:15;12.20;99.90
43679;DHT22;29279;50.858;4.392;2024-02-14T12:35:46;12.20;99.90
43679;DHT22;29279;50.858;4.392;2024-02-14T12:38:13;12.30;99.90
43679;DHT22;29279;50.858;4.392;2024-02-14T12:40:39;12.30;99.90
43679;DHT22;29279;50.858;4.392;2024-02-14T12:43:10;12.40;99.90
43679;DHT22;29279;50.858;4.392;2024-02-14T12:45:39;12.50;99.90
43679;DHT22;29279;50.858;4.392;2024-02-14T12:48:06;12.40;99.90
43679;DHT22;29279;50.858;4.392;2024-02-14T12:50:34;12.50;99.90
43679;DHT22;29279;50.858;4.392;2024-02-14T12:53:01;12.50;99.90
43679;DHT22;29279;50.858;4.392;2024-02-14T12:55:27;12.50;99.90
43679;DHT22;29279;50.858;4.392;2024-02-14T12:57:55;12.50;99.90
43679;DHT22;29279;50.858;4.392;2024-02-14T13:00:21;12.50;99.90
43679;DHT22;29279;50.858;4.392;2024-02-14T13:02:48;12.50;99.90
43679;DHT22;29279;50.858;4.392;2024-02-14T13:05:14;12.50;99.90
43679;DHT22;29279;50.858;4.392;2024-02-14T13:07:41;12.50;99.90
43679;DHT22;29279;50.858;4.392;2024-02-14T13:10:07;12.40;99.90
43679;DHT22;29279;50.858;4.392;2024-02-14T13:12:35;12.40;99.90
43679;DHT22;29279;50.858;4.392;2024-02-14T13:15:01;12.40;99.90
43679;DHT22;29279;50.858;4.392;2024-02-14T13:17:27;12.40;99.90
43679;DHT22;29279;50.858;4.392;2024-02-14T13:19:52;12.40;99.90
43679;DHT22;29279;50.858;4.392;2024-02-14T13:22:19;12.40;99.90
43679;DHT22;29279;50.858;4.392;2024-02-14T13:24:44;12.40;99.90
43679;DHT22;29279;50.858;4.392;2024-02-14T13:27:10;12.40;99.90
43679;DHT22;29279;50.858;4.392;2024-02-14T13:29:36;12.40;99.90
43679;DHT22;29279;50.858;4.392;2024-02-14T13:32:02;12.40;99.90
43679;DHT22;29279;50.858;4.392;2024-02-14T13:34:29;12.40;99.90
43679;DHT22;29279;50.858;4.392;2024-02-14T13:36:55;12.40;99.90
43679;DHT22;29279;50.858;4.392;2024-02-14T13:39:22;12.30;99.90
43679;DHT22;29279;50.858;4.392;2024-02-14T13:41:47;12.30;99.90
43679;DHT22;29279;50.858;4.392;2024-02-14T13:44:13;12.40;99.90
43679;DHT22;29279;50.858;4.392;2024-02-14T13:46:44;12.40;99.90
43679;DHT22;29279;50.858;4.392;2024-02-14T13:49:11;12.40;99.90
43679;DHT22;29279;50.858;4.392;2024-02-14T13:51:38;12.50;99.90
43679;DHT22;29279;50.858;4.392;2024-02-14T13:54:04;12.40;99.90
43679;DHT22;29279;50.858;4.392;2024-02-14T13:56:30;12.40;99.90
43679;DHT22;29279;50.858;4.392;2024-02-14T13:58:56;12.40;99.90
43679;DHT22;29279;50.858;4.392;2024-02-14T14:01:22;12.40;99.90
43679;DHT22;29279;50.858;4.392;2024-02-14T14:03:49;12.40;99.90
43679;DHT22;29279;50.858;4.392;2024-02-14T14:06:16;12.40;99.90
43679;DHT22;29279;50.858;4.392;2024-02-14T14:08:42;12.40;99.90
43679;DHT22;29279;50.858;4.392;2024-02-14T14:11:07;12.40;99.90
43679;DHT22;29279;50.858;4.392;2024-02-14T14:13:34;12.50;99.90
43679;DHT22;29279;50.858;4.392;2024-02-14T14:16:00;12.50;99.90
43679;DHT22;29279;50.858;4.392;2024-02-14T14:18:26;12.40;99.90
43679;DHT22;29279;50.858;4.392;2024-02-14T14:20:51;12.50;99.90
43679;DHT22;29279;50.858;4.392;2024-02-14T14:23:20;12.50;99.90
43679;DHT22;29279;50.858;4.392;2024-02-14T14:25:47;12.60;99.90
43679;DHT22;29279;50.858;4.392;2024-02-14T14:28:13;12.60;99.90
43679;DHT22;29279;50.858;4.392;2024-02-14T14:30:40;12.60;99.90
43679;DHT22;29279;50.858;4.392;2024-02-14T14:33:07;12.60;99.90
43679;DHT22;29279;50.858;4.392;2024-02-14T14:35:34;12.60;99.90
43679;DHT22;29279;50.858;4.392;2024-02-14T14:38:01;12.70;99.90
43679;DHT22;29279;50.858;4.392;2024-02-14T14:40:28;12.70;99.90
43679;DHT22;29279;50.858;4.392;2024-02-14T14:42:54;12.80;99.90
43679;DHT22;29279;50.858;4.392;2024-02-14T14:45:20;12.80;99.90
43679;DHT22;29279;50.858;4.392;2024-02-14T14:47:45;12.80;99.90
43679;DHT22;29279;50.858;4.392;2024-02-14T14:50:11;12.70;99.90
43679;DHT22;29279;50.858;4.392;2024-02-14T14:52:41;12.70;99.90
43679;DHT22;29279;50.858;4.392;2024-02-14T14:55:09;12.70;99.90
43679;DHT22;29279;50.858;4.392;2024-02-14T14:57:35;12.70;99.90
43679;DHT22;29279;50.858;4.392;2024-02-14T15:00:08;12.70;99.90
43679;DHT22;29279;50.858;4.392;2024-02-14T15:02:40;12.70;99.90
43679;DHT22;29279;50.858;4.392;2024-02-14T15:05:10;12.70;99.90
43679;DHT22;29279;50.858;4.392;2024-02-14T15:07:37;12.80;99.90
43679;DHT22;29279;50.858;4.392;2024-02-14T15:10:03;12.80;99.90
43679;DHT22;29279;50.858;4.392;2024-02-14T15:12:30;12.90;99.90
43679;DHT22;29279;50.858;4.392;2024-02-14T15:14:55;12.90;99.90
43679;DHT22;29279;50.858;4.392;2024-02-14T15:17:22;13.00;99.90
43679;DHT22;29279;50.858;4.392;2024-02-14T15:19:49;12.90;99.90
43679;DHT22;29279;50.858;4.392;2024-02-14T15:22:15;12.90;99.90
43679;DHT22;29279;50.858;4.392;2024-02-14T15:24:41;12.90;99.90
43679;DHT22;29279;50.858;4.392;2024-02-14T15:27:11;12.90;99.90
43679;DHT22;29279;50.858;4.392;2024-02-14T15:29:37;12.90;99.90
43679;DHT22;29279;50.858;4.392;2024-02-14T15:32:23;12.90;99.90
43679;DHT22;29279;50.858;4.392;2024-02-14T15:35:07;12.90;99.90
43679;DHT22;29279;50.858;4.392;2024-02-14T15:37:35;12.90;99.90
43679;DHT22;29279;50.858;4.392;2024-02-14T15:40:01;12.90;99.90
43679;DHT22;29279;50.858;4.392;2024-02-14T15:42:27;12.90;99.90
43679;DHT22;29279;50.858;4.392;2024-02-14T15:44:53;13.00;99.90
43679;DHT22;29279;50.858;4.392;2024-02-14T15:47:19;13.00;99.90
43679;DHT22;29279;50.858;4.392;2024-02-14T15:49:48;13.00;99.90
43679;DHT22;29279;50.858;4.392;2024-02-14T15:52:16;13.10;99.90
43679;DHT22;29279;50.858;4.392;2024-02-14T15:54:44;13.10;99.90
43679;DHT22;29279;50.858;4.392;2024-02-14T15:57:10;13.10;99.90
43679;DHT22;29279;50.858;4.392;2024-02-14T15:59:37;13.00;99.90
43679;DHT22;29279;50.858;4.392;2024-02-14T16:02:04;13.00;99.90
43679;DHT22;29279;50.858;4.392;2024-02-14T16:04:29;13.00;99.90
43679;DHT22;29279;50.858;4.392;2024-02-14T16:06:56;13.00;99.90
43679;DHT22;29279;50.858;4.392;2024-02-14T16:09:22;12.90;99.90
43679;DHT22;29279;50.858;4.392;2024-02-14T16:11:48;12.90;99.90
43679;DHT22;29279;50.858;4.392;2024-02-14T16:14:13;12.90;99.90
43679;DHT22;29279;50.858;4.392;2024-02-14T16:16:42;12.90;99.90
43679;DHT22;29279;50.858;4.392;2024-02-14T16:19:08;12.90;99.90
43679;DHT22;29279;50.858;4.392;2024-02-14T16:21:34;12.90;99.90
43679;DHT22;29279;50.858;4.392;2024-02-14T16:23:59;12.90;99.90
43679;DHT22;29279;50.858;4.392;2024-02-14T16:26:25;12.90;99.90
43679;DHT22;29279;50.858;4.392;2024-02-14T16:28:51;12.90;99.90
43679;DHT22;29279;50.858;4.392;2024-02-14T16:31:17;12.90;99.90
43679;DHT22;29279;50.858;4.392;2024-02-14T16:33:42;12.90;99.90
43679;DHT22;29279;50.858;4.392;2024-02-14T16:36:08;12.90;99.90